sensor_id;sensor_type;location;lat;lon;timestamp;pressure;altitude;pressure_sealevel;temperature;humidity
21824;BME280;11074;48.596;9.238;2023-12-20T00:01:35;98281.56;;;5.96;92.51
21824;BME280;11074;48.596;9.238;2023-12-20T00:04:02;98275.97;;;6.04;91.89
21824;BME280;11074;48.596;9.238;2023-12-20T00:06:29;98251.50;;;6.02;92.24
21824;BME280;11074;48.596;9.238;2023-12-20T00:08:55;98258.59;;;6.08;92.09
21824;BME280;11074;48.596;9.238;2023-12-20T00:11:21;98252.09;;;6.04;92.47
21824;BME280;11074;48.596;9.238;2023-12-20T00:13:46;98251.50;;;6.02;93.14
21824;BME280;11074;48.596;9.238;2023-12-20T00:16:12;98248.44;;;6.05;92.17
21824;BME280;11074;48.596;9.238;2023-12-20T00:18:38;98259.78;;;6.13;92.10
21824;BME280;11074;48.596;9.238;2023-12-20T00:21:04;98244.91;;;6.12;91.65
21824;BME280;11074;48.596;9.238;2023-12-20T00:23:29;98248.72;;;6.16;92.11
21824;BME280;11074;48.596;9.238;2023-12-20T00:25:55;98228.06;;;6.18;91.73
21824;BME280;11074;48.596;9.238;2023-12-20T00:28:21;98226.47;;;6.17;92.79
21824;BME280;11074;48.596;9.238;2023-12-20T00:30:46;98227.47;;;6.16;92.08
21824;BME280;11074;48.596;9.238;2023-12-20T00:33:12;98224.38;;;6.19;92.96
21824;BME280;11074;48.596;9.238;2023-12-20T00:35:38;98214.78;;;6.18;92.10
21824;BME280;11074;48.596;9.238;2023-12-20T00:38:03;98207.94;;;6.10;92.29
21824;BME280;11074;48.596;9.238;2023-12-20T00:40:30;98207.75;;;6.12;92.87
21824;BME280;11074;48.596;9.238;2023-12-20T00:42:56;98208.69;;;6.17;92.54
21824;BME280;11074;48.596;9.238;2023-12-20T00:45:21;98223.94;;;6.22;92.65
21824;BME280;11074;48.596;9.238;2023-12-20T00:47:47;98213.53;;;6.20;92.65
21824;BME280;11074;48.596;9.238;2023-12-20T00:50:13;98211.25;;;6.24;92.38
21824;BME280;11074;48.596;9.238;2023-12-20T00:52:38;98199.63;;;6.25;91.93
21824;BME280;11074;48.596;9.238;2023-12-20T00:55:05;98197.31;;;6.28;91.65
21824;BME280;11074;48.596;9.238;2023-12-20T00:57:31;98186.09;;;6.26;92.08
21824;BME280;11074;48.596;9.238;2023-12-20T00:59:56;98203.28;;;6.24;92.04
21824;BME280;11074;48.596;9.238;2023-12-20T01:02:22;98193.34;;;6.19;92.80
21824;BME280;11074;48.596;9.238;2023-12-20T01:04:48;98202.13;;;6.20;93.51
21824;BME280;11074;48.596;9.238;2023-12-20T01:07:13;98214.22;;;6.16;93.93
21824;BME280;11074;48.596;9.238;2023-12-20T01:09:39;98210.97;;;6.14;94.12
21824;BME280;11074;48.596;9.238;2023-12-20T01:12:05;98213.63;;;6.14;95.29
21824;BME280;11074;48.596;9.238;2023-12-20T01:14:31;98227.28;;;6.17;95.10
21824;BME280;11074;48.596;9.238;2023-12-20T01:16:56;98223.06;;;6.28;94.69
21824;BME280;11074;48.596;9.238;2023-12-20T01:19:22;98221.81;;;6.30;94.95
21824;BME280;11074;48.596;9.238;2023-12-20T01:21:49;98226.44;;;6.35;96.34
21824;BME280;11074;48.596;9.238;2023-12-20T01:24:15;98224.38;;;6.37;97.51
21824;BME280;11074;48.596;9.238;2023-12-20T01:26:40;98224.81;;;6.34;97.38
21824;BME280;11074;48.596;9.238;2023-12-20T01:29:06;98236.25;;;6.34;97.97
21824;BME280;11074;48.596;9.238;2023-12-20T01:31:31;98229.34;;;6.33;98.66
21824;BME280;11074;48.596;9.238;2023-12-20T01:33:57;98236.25;;;6.34;99.23
21824;BME280;11074;48.596;9.238;2023-12-20T01:36:23;98241.66;;;6.28;99.60
21824;BME280;11074;48.596;9.238;2023-12-20T01:38:48;98237.94;;;6.29;100.00
21824;BME280;11074;48.596;9.238;2023-12-20T01:41:15;98239.56;;;6.30;100.00
21824;BME280;11074;48.596;9.238;2023-12-20T01:43:40;98244.66;;;6.31;100.00
21824;BME280;11074;48.596;9.238;2023-12-20T01:46:06;98237.59;;;6.25;100.00
21824;BME280;11074;48.596;9.238;2023-12-20T01:48:32;98247.59;;;6.23;100.00
21824;BME280;11074;48.596;9.238;2023-12-20T01:51:00;98244.16;;;6.23;100.00
21824;BME280;11074;48.596;9.238;2023-12-20T01:53:27;98242.16;;;6.18;100.00
21824;BME280;11074;48.596;9.238;2023-12-20T01:55:56;98244.16;;;6.23;100.00
21824;BME280;11074;48.596;9.238;2023-12-20T01:58:23;98241.66;;;6.28;100.00
21824;BME280;11074;48.596;9.238;2023-12-20T02:00:50;98238.84;;;6.23;100.00
21824;BME280;11074;48.596;9.238;2023-12-20T02:03:18;98242.72;;;6.20;100.00
21824;BME280;11074;48.596;9.238;2023-12-20T02:05:45;98240.59;;;6.29;100.00
21824;BME280;11074;48.596;9.238;2023-12-20T02:08:12;98241.66;;;6.28;100.00
21824;BME280;11074;48.596;9.238;2023-12-20T02:10:38;98232.28;;;6.25;100.00
21824;BME280;11074;48.596;9.238;2023-12-20T02:13:04;98230.56;;;6.31;100.00
21824;BME280;11074;48.596;9.238;2023-12-20T02:15:30;98220.84;;;6.25;100.00
21824;BME280;11074;48.596;9.238;2023-12-20T02:17:56;98224.31;;;6.25;100.00
21824;BME280;11074;48.596;9.238;2023-12-20T02:20:21;98214.78;;;6.18;100.00
21824;BME280;11074;48.596;9.238;2023-12-20T02:22:47;98223.38;;;6.20;100.00
21824;BME280;11074;48.596;9.238;2023-12-20T02:25:13;98230.72;;;6.18;100.00
21824;BME280;11074;48.596;9.238;2023-12-20T02:27:39;98230.13;;;6.16;100.00
21824;BME280;11074;48.596;9.238;2023-12-20T02:30:06;98214.00;;;6.17;100.00
21824;BME280;11074;48.596;9.238;2023-12-20T02:32:31;98214.44;;;6.14;100.00
21824;BME280;11074;48.596;9.238;2023-12-20T02:34:58;98213.50;;;6.08;100.00
21824;BME280;11074;48.596;9.238;2023-12-20T02:37:23;98221.22;;;6.10;100.00
21824;BME280;11074;48.596;9.238;2023-12-20T02:39:49;98223.72;;;6.05;100.00
21824;BME280;11074;48.596;9.238;2023-12-20T02:42:15;98210.69;;;6.03;100.00
21824;BME280;11074;48.596;9.238;2023-12-20T02:44:41;98216.53;;;6.12;100.00
21824;BME280;11074;48.596;9.238;2023-12-20T02:47:06;98222.84;;;6.11;100.00
21824;BME280;11074;48.596;9.238;2023-12-20T02:49:32;98220.19;;;6.11;100.00
21824;BME280;11074;48.596;9.238;2023-12-20T02:51:58;98233.22;;;6.13;100.00
21824;BME280;11074;48.596;9.238;2023-12-20T02:54:23;98231.63;;;6.12;100.00
21824;BME280;11074;48.596;9.238;2023-12-20T02:56:49;98231.19;;;6.15;100.00
21824;BME280;11074;48.596;9.238;2023-12-20T02:59:15;98224.69;;;6.10;100.00
21824;BME280;11074;48.596;9.238;2023-12-20T03:01:45;98227.91;;;6.13;100.00
21824;BME280;11074;48.596;9.238;2023-12-20T03:04:14;98221.59;;;6.14;100.00
21824;BME280;11074;48.596;9.238;2023-12-20T03:06:40;98223.66;;;6.12;100.00
21824;BME280;11074;48.596;9.238;2023-12-20T03:09:06;98222.47;;;6.07;100.00
21824;BME280;11074;48.596;9.238;2023-12-20T03:11:31;98225.72;;;6.09;100.00
21824;BME280;11074;48.596;9.238;2023-12-20T03:13:57;98230.09;;;6.04;100.00
21824;BME280;11074;48.596;9.238;2023-12-20T03:16:23;98241.88;;;6.08;100.00
21824;BME280;11074;48.596;9.238;2023-12-20T03:18:49;98231.69;;;6.05;100.00
21824;BME280;11074;48.596;9.238;2023-12-20T03:21:15;98234.72;;;6.08;100.00
21824;BME280;11074;48.596;9.238;2023-12-20T03:23:41;98235.53;;;6.09;100.00
21824;BME280;11074;48.596;9.238;2023-12-20T03:26:08;98243.06;;;6.12;100.00
21824;BME280;11074;48.596;9.238;2023-12-20T03:28:33;98238.78;;;6.11;100.00
21824;BME280;11074;48.596;9.238;2023-12-20T03:30:59;98240.59;;;6.10;100.00
21824;BME280;11074;48.596;9.238;2023-12-20T03:33:25;98236.94;;;6.12;100.00
21824;BME280;11074;48.596;9.238;2023-12-20T03:35:51;98249.59;;;6.09;100.00
21824;BME280;11074;48.596;9.238;2023-12-20T03:38:16;98240.47;;;6.05;100.00
21824;BME280;11074;48.596;9.238;2023-12-20T03:40:42;98231.47;;;6.06;100.00
21824;BME280;11074;48.596;9.238;2023-12-20T03:43:08;98245.72;;;6.12;100.00
21824;BME280;11074;48.596;9.238;2023-12-20T03:45:33;98248.13;;;6.14;100.00
21824;BME280;11074;48.596;9.238;2023-12-20T03:47:59;98252.13;;;6.23;100.00
21824;BME280;11074;48.596;9.238;2023-12-20T03:50:25;98252.75;;;6.18;100.00
21824;BME280;11074;48.596;9.238;2023-12-20T03:52:51;98266.84;;;6.19;100.00
21824;BME280;11074;48.596;9.238;2023-12-20T03:55:16;98274.81;;;6.19;100.00
21824;BME280;11074;48.596;9.238;2023-12-20T03:57:42;98270.31;;;6.19;100.00
21824;BME280;11074;48.596;9.238;2023-12-20T04:00:08;98272.75;;;6.21;100.00
21824;BME280;11074;48.596;9.238;2023-12-20T04:02:41;98264.19;;;6.19;100.00
21824;BME280;11074;48.596;9.238;2023-12-20T04:05:08;98262.38;;;6.19;100.00
21824;BME280;11074;48.596;9.238;2023-12-20T04:07:34;98263.63;;;6.17;100.00
21824;BME280;11074;48.596;9.238;2023-12-20T04:10:00;98275.63;;;6.19;100.00
21824;BME280;11074;48.596;9.238;2023-12-20T04:12:27;98272.16;;;6.19;100.00
21824;BME280;11074;48.596;9.238;2023-12-20T04:14:52;98271.94;;;6.20;100.00
21824;BME280;11074;48.596;9.238;2023-12-20T04:17:18;98281.75;;;6.20;100.00
21824;BME280;11074;48.596;9.238;2023-12-20T04:19:43;98270.72;;;6.23;100.00
21824;BME280;11074;48.596;9.238;2023-12-20T04:22:09;98279.31;;;6.18;100.00
21824;BME280;11074;48.596;9.238;2023-12-20T04:24:34;98273.78;;;6.20;100.00
21824;BME280;11074;48.596;9.238;2023-12-20T04:27:01;98267.88;;;6.18;100.00
21824;BME280;11074;48.596;9.238;2023-12-20T04:29:26;98259.34;;;6.16;100.00
21824;BME280;11074;48.596;9.238;2023-12-20T04:31:52;98269.94;;;6.16;100.00
21824;BME280;11074;48.596;9.238;2023-12-20T04:34:18;98282.63;;;6.14;100.00
21824;BME280;11074;48.596;9.238;2023-12-20T04:36:43;98286.44;;;6.18;100.00
21824;BME280;11074;48.596;9.238;2023-12-20T04:39:10;98278.28;;;6.19;100.00
21824;BME280;11074;48.596;9.238;2023-12-20T04:41:35;98282.78;;;6.19;100.00
21824;BME280;11074;48.596;9.238;2023-12-20T04:44:01;98258.97;;;6.12;100.00
21824;BME280;11074;48.596;9.238;2023-12-20T04:46:26;98272.97;;;6.19;100.00
21824;BME280;11074;48.596;9.238;2023-12-20T04:48:52;98282.19;;;6.17;100.00
21824;BME280;11074;48.596;9.238;2023-12-20T04:51:18;98294.06;;;6.14;100.00
21824;BME280;11074;48.596;9.238;2023-12-20T04:53:43;98285.19;;;6.20;100.00
21824;BME280;11074;48.596;9.238;2023-12-20T04:56:09;98300.34;;;6.20;100.00
21824;BME280;11074;48.596;9.238;2023-12-20T04:58:35;98305.22;;;6.23;100.00
21824;BME280;11074;48.596;9.238;2023-12-20T05:01:00;98293.84;;;6.16;100.00
21824;BME280;11074;48.596;9.238;2023-12-20T05:03:26;98298.94;;;6.17;100.00
21824;BME280;11074;48.596;9.238;2023-12-20T05:05:51;98307.47;;;6.19;100.00
21824;BME280;11074;48.596;9.238;2023-12-20T05:08:17;98299.72;;;6.18;100.00
21824;BME280;11074;48.596;9.238;2023-12-20T05:10:43;98301.75;;;6.22;100.00
21824;BME280;11074;48.596;9.238;2023-12-20T05:13:08;98309.91;;;6.21;100.00
21824;BME280;11074;48.596;9.238;2023-12-20T05:15:34;98312.78;;;6.19;100.00
21824;BME280;11074;48.596;9.238;2023-12-20T05:17:59;98318.25;;;6.24;100.00
21824;BME280;11074;48.596;9.238;2023-12-20T05:20:25;98321.41;;;6.15;100.00
21824;BME280;11074;48.596;9.238;2023-12-20T05:22:50;98313.00;;;6.18;100.00
21824;BME280;11074;48.596;9.238;2023-12-20T05:25:16;98317.28;;;6.19;100.00
21824;BME280;11074;48.596;9.238;2023-12-20T05:27:42;98325.63;;;6.22;100.00
21824;BME280;11074;48.596;9.238;2023-12-20T05:30:08;98328.47;;;6.21;100.00
21824;BME280;11074;48.596;9.238;2023-12-20T05:32:33;98334.41;;;6.23;100.00
21824;BME280;11074;48.596;9.238;2023-12-20T05:34:59;98339.91;;;6.21;100.00
21824;BME280;11074;48.596;9.238;2023-12-20T05:37:24;98343.59;;;6.20;100.00
21824;BME280;11074;48.596;9.238;2023-12-20T05:39:51;98343.16;;;6.23;100.00
21824;BME280;11074;48.596;9.238;2023-12-20T05:42:16;98338.09;;;6.22;100.00
21824;BME280;11074;48.596;9.238;2023-12-20T05:44:42;98336.25;;;6.22;100.00
21824;BME280;11074;48.596;9.238;2023-12-20T05:47:07;98353.34;;;6.26;100.00
21824;BME280;11074;48.596;9.238;2023-12-20T05:49:33;98348.63;;;6.28;100.00
21824;BME280;11074;48.596;9.238;2023-12-20T05:51:58;98348.63;;;6.28;100.00
21824;BME280;11074;48.596;9.238;2023-12-20T05:54:24;98354.00;;;6.22;100.00
21824;BME280;11074;48.596;9.238;2023-12-20T05:56:50;98350.91;;;6.25;100.00
21824;BME280;11074;48.596;9.238;2023-12-20T05:59:16;98357.03;;;6.25;100.00
21824;BME280;11074;48.596;9.238;2023-12-20T06:01:41;98361.81;;;6.17;100.00
21824;BME280;11074;48.596;9.238;2023-12-20T06:04:07;98368.09;;;6.22;100.00
21824;BME280;11074;48.596;9.238;2023-12-20T06:06:32;98364.78;;;6.27;100.00
21824;BME280;11074;48.596;9.238;2023-12-20T06:08:58;98368.44;;;6.26;100.00
21824;BME280;11074;48.596;9.238;2023-12-20T06:11:24;98377.66;;;6.23;100.00
21824;BME280;11074;48.596;9.238;2023-12-20T06:13:49;98388.06;;;6.25;100.00
21824;BME280;11074;48.596;9.238;2023-12-20T06:16:18;98396.63;;;6.27;100.00
21824;BME280;11074;48.596;9.238;2023-12-20T06:18:43;98391.75;;;6.24;100.00
21824;BME280;11074;48.596;9.238;2023-12-20T06:21:09;98381.38;;;6.22;100.00
21824;BME280;11074;48.596;9.238;2023-12-20T06:23:38;98397.22;;;6.29;100.00
21824;BME280;11074;48.596;9.238;2023-12-20T06:26:04;98394.78;;;6.27;100.00
21824;BME280;11074;48.596;9.238;2023-12-20T06:28:29;98390.72;;;6.25;100.00
21824;BME280;11074;48.596;9.238;2023-12-20T06:30:55;98397.28;;;6.22;100.00
21824;BME280;11074;48.596;9.238;2023-12-20T06:33:22;98400.91;;;6.28;100.00
21824;BME280;11074;48.596;9.238;2023-12-20T06:35:48;98402.31;;;6.30;100.00
21824;BME280;11074;48.596;9.238;2023-12-20T06:38:14;98407.00;;;6.28;100.00
21824;BME280;11074;48.596;9.238;2023-12-20T06:40:40;98403.41;;;6.23;100.00
21824;BME280;11074;48.596;9.238;2023-12-20T06:43:05;98407.91;;;6.22;100.00
21824;BME280;11074;48.596;9.238;2023-12-20T06:45:32;98403.41;;;6.23;100.00
21824;BME280;11074;48.596;9.238;2023-12-20T06:47:58;98391.97;;;6.22;100.00
21824;BME280;11074;48.596;9.238;2023-12-20T06:50:24;98402.16;;;6.25;100.00
21824;BME280;11074;48.596;9.238;2023-12-20T06:52:49;98401.56;;;6.23;100.00
21824;BME280;11074;48.596;9.238;2023-12-20T06:55:15;98414.66;;;6.18;100.00
21824;BME280;11074;48.596;9.238;2023-12-20T06:57:40;98412.16;;;6.23;100.00
21824;BME280;11074;48.596;9.238;2023-12-20T07:00:06;98416.47;;;6.24;100.00
21824;BME280;11074;48.596;9.238;2023-12-20T07:02:34;98417.72;;;6.22;100.00
21824;BME280;11074;48.596;9.238;2023-12-20T07:04:59;98417.47;;;6.23;100.00
21824;BME280;11074;48.596;9.238;2023-12-20T07:07:25;98408.09;;;6.21;100.00
21824;BME280;11074;48.596;9.238;2023-12-20T07:09:51;98424.03;;;6.21;100.00
21824;BME280;11074;48.596;9.238;2023-12-20T07:12:17;98428.91;;;6.24;100.00
21824;BME280;11074;48.596;9.238;2023-12-20T07:14:45;98432.63;;;6.23;100.00
21824;BME280;11074;48.596;9.238;2023-12-20T07:17:11;98436.28;;;6.22;100.00
21824;BME280;11074;48.596;9.238;2023-12-20T07:19:37;98444.69;;;6.19;100.00
21824;BME280;11074;48.596;9.238;2023-12-20T07:22:04;98438.72;;;6.23;100.00
21824;BME280;11074;48.596;9.238;2023-12-20T07:24:29;98436.88;;;6.24;100.00
21824;BME280;11074;48.596;9.238;2023-12-20T07:26:55;98430.59;;;6.18;100.00
21824;BME280;11074;48.596;9.238;2023-12-20T07:29:21;98444.84;;;6.24;100.00
21824;BME280;11074;48.596;9.238;2023-12-20T07:31:46;98443.38;;;6.28;100.00
21824;BME280;11074;48.596;9.238;2023-12-20T07:34:12;98460.09;;;6.28;100.00
21824;BME280;11074;48.596;9.238;2023-12-20T07:36:37;98471.38;;;6.24;100.00
21824;BME280;11074;48.596;9.238;2023-12-20T07:39:03;98469.94;;;6.28;100.00
21824;BME280;11074;48.596;9.238;2023-12-20T07:41:28;98469.94;;;6.28;100.00
21824;BME280;11074;48.596;9.238;2023-12-20T07:43:54;98468.69;;;6.30;100.00
21824;BME280;11074;48.596;9.238;2023-12-20T07:46:21;98463.97;;;6.32;100.00
21824;BME280;11074;48.596;9.238;2023-12-20T07:48:49;98471.50;;;6.35;100.00
21824;BME280;11074;48.596;9.238;2023-12-20T07:51:15;98476.00;;;6.35;100.00
21824;BME280;11074;48.596;9.238;2023-12-20T07:53:40;98482.94;;;6.36;100.00
21824;BME280;11074;48.596;9.238;2023-12-20T07:56:19;98478.41;;;6.36;100.00
21824;BME280;11074;48.596;9.238;2023-12-20T07:58:45;98475.16;;;6.34;100.00
21824;BME280;11074;48.596;9.238;2023-12-20T08:01:11;98479.81;;;6.39;100.00
21824;BME280;11074;48.596;9.238;2023-12-20T08:03:38;98483.09;;;6.41;100.00
21824;BME280;11074;48.596;9.238;2023-12-20T08:06:03;98492.66;;;6.42;100.00
21824;BME280;11074;48.596;9.238;2023-12-20T08:08:29;98493.44;;;6.49;100.00
21824;BME280;11074;48.596;9.238;2023-12-20T08:10:55;98480.22;;;6.42;100.00
21824;BME280;11074;48.596;9.238;2023-12-20T08:13:20;98484.69;;;6.42;100.00
21824;BME280;11074;48.596;9.238;2023-12-20T08:15:52;98499.84;;;6.41;100.00
21824;BME280;11074;48.596;9.238;2023-12-20T08:18:17;98502.66;;;6.46;100.00
21824;BME280;11074;48.596;9.238;2023-12-20T08:20:43;98489.59;;;6.45;100.00
21824;BME280;11074;48.596;9.238;2023-12-20T08:23:08;98483.03;;;6.47;100.00
21824;BME280;11074;48.596;9.238;2023-12-20T08:25:34;98493.81;;;6.52;100.00
21824;BME280;11074;48.596;9.238;2023-12-20T08:28:00;98494.19;;;6.56;100.00
21824;BME280;11074;48.596;9.238;2023-12-20T08:30:26;98495.44;;;6.53;100.00
21824;BME280;11074;48.596;9.238;2023-12-20T08:32:51;98501.28;;;6.62;100.00
21824;BME280;11074;48.596;9.238;2023-12-20T08:35:17;98505.34;;;6.64;100.00
21824;BME280;11074;48.596;9.238;2023-12-20T08:37:44;98503.88;;;6.68;100.00
21824;BME280;11074;48.596;9.238;2023-12-20T08:40:09;98494.28;;;6.67;100.00
21824;BME280;11074;48.596;9.238;2023-12-20T08:42:35;98497.53;;;6.69;100.00
21824;BME280;11074;48.596;9.238;2023-12-20T08:45:01;98505.28;;;6.71;100.00
21824;BME280;11074;48.596;9.238;2023-12-20T08:47:26;98505.06;;;6.72;100.00
21824;BME280;11074;48.596;9.238;2023-12-20T08:49:52;98509.34;;;6.73;100.00
21824;BME280;11074;48.596;9.238;2023-12-20T08:52:22;98505.06;;;6.72;100.00
21824;BME280;11074;48.596;9.238;2023-12-20T08:54:49;98503.44;;;6.71;100.00
21824;BME280;11074;48.596;9.238;2023-12-20T08:57:19;98511.56;;;6.77;100.00
21824;BME280;11074;48.596;9.238;2023-12-20T08:59:46;98518.94;;;6.75;100.00
21824;BME280;11074;48.596;9.238;2023-12-20T09:02:12;98523.09;;;6.70;100.00
21824;BME280;11074;48.596;9.238;2023-12-20T09:04:38;98520.63;;;6.69;100.00
21824;BME280;11074;48.596;9.238;2023-12-20T09:07:03;98528.75;;;6.74;100.00
21824;BME280;11074;48.596;9.238;2023-12-20T09:09:29;98520.59;;;6.76;100.00
21824;BME280;11074;48.596;9.238;2023-12-20T09:11:54;98517.69;;;6.77;100.00
21824;BME280;11074;48.596;9.238;2023-12-20T09:14:20;98527.34;;;6.71;100.00
21824;BME280;11074;48.596;9.238;2023-12-20T09:16:46;98537.09;;;6.78;100.00
21824;BME280;11074;48.596;9.238;2023-12-20T09:19:11;98529.56;;;6.75;100.00
21824;BME280;11074;48.596;9.238;2023-12-20T09:21:37;98526.47;;;6.78;100.00
21824;BME280;11074;48.596;9.238;2023-12-20T09:24:02;98536.88;;;6.79;100.00
21824;BME280;11074;48.596;9.238;2023-12-20T09:26:28;98526.34;;;6.91;100.00
21824;BME280;11074;48.596;9.238;2023-12-20T09:28:53;98527.81;;;6.87;100.00
21824;BME280;11074;48.596;9.238;2023-12-20T09:31:19;98530.31;;;6.82;99.23
21824;BME280;11074;48.596;9.238;2023-12-20T09:33:45;98529.88;;;6.85;98.45
21824;BME280;11074;48.596;9.238;2023-12-20T09:36:10;98533.66;;;6.95;97.04
21824;BME280;11074;48.596;9.238;2023-12-20T09:38:36;98533.38;;;7.03;96.16
21824;BME280;11074;48.596;9.238;2023-12-20T09:41:01;98538.84;;;7.08;94.35
21824;BME280;11074;48.596;9.238;2023-12-20T09:43:30;98532.94;;;7.06;94.00
21824;BME280;11074;48.596;9.238;2023-12-20T09:45:58;98526.59;;;7.07;94.19
21824;BME280;11074;48.596;9.238;2023-12-20T09:48:26;98524.53;;;7.09;93.89
21824;BME280;11074;48.596;9.238;2023-12-20T09:50:52;98534.28;;;7.15;92.68
21824;BME280;11074;48.596;9.238;2023-12-20T09:53:17;98533.66;;;7.13;92.19
21824;BME280;11074;48.596;9.238;2023-12-20T09:55:44;98535.06;;;7.16;91.45
21824;BME280;11074;48.596;9.238;2023-12-20T09:58:10;98526.31;;;7.15;91.57
21824;BME280;11074;48.596;9.238;2023-12-20T10:00:35;98552.50;;;7.12;88.87
21824;BME280;11074;48.596;9.238;2023-12-20T10:03:01;98542.84;;;7.17;89.82
21824;BME280;11074;48.596;9.238;2023-12-20T10:05:32;98536.13;;;7.15;88.99
21824;BME280;11074;48.596;9.238;2023-12-20T10:07:58;98536.72;;;7.17;88.56
21824;BME280;11074;48.596;9.238;2023-12-20T10:10:24;98527.91;;;7.16;88.43
21824;BME280;11074;48.596;9.238;2023-12-20T10:13:06;98515.81;;;7.20;88.25
21824;BME280;11074;48.596;9.238;2023-12-20T10:15:33;98520.09;;;7.21;89.55
21824;BME280;11074;48.596;9.238;2023-12-20T10:17:58;98525.88;;;7.18;87.75
21824;BME280;11074;48.596;9.238;2023-12-20T10:20:25;98527.91;;;7.16;87.89
21824;BME280;11074;48.596;9.238;2023-12-20T10:22:51;98526.47;;;7.20;87.17
21824;BME280;11074;48.596;9.238;2023-12-20T10:25:20;98536.03;;;7.21;87.84
21824;BME280;11074;48.596;9.238;2023-12-20T10:27:46;98515.16;;;7.07;87.09
21824;BME280;11074;48.596;9.238;2023-12-20T10:30:13;98519.78;;;7.11;84.70
21824;BME280;11074;48.596;9.238;2023-12-20T10:32:39;98510.28;;;7.22;86.57
21824;BME280;11074;48.596;9.238;2023-12-20T10:35:04;98507.03;;;7.20;86.55
21824;BME280;11074;48.596;9.238;2023-12-20T10:37:30;98511.75;;;7.18;86.38
21824;BME280;11074;48.596;9.238;2023-12-20T10:39:56;98511.09;;;7.22;86.22
21824;BME280;11074;48.596;9.238;2023-12-20T10:42:27;98497.78;;;7.22;85.74
21824;BME280;11074;48.596;9.238;2023-12-20T10:44:54;98504.59;;;7.18;85.12
21824;BME280;11074;48.596;9.238;2023-12-20T10:47:20;98512.88;;;7.28;83.79
21824;BME280;11074;48.596;9.238;2023-12-20T10:49:46;98502.38;;;7.33;82.62
21824;BME280;11074;48.596;9.238;2023-12-20T10:52:13;98507.31;;;7.30;82.36
21824;BME280;11074;48.596;9.238;2023-12-20T10:54:40;98501.78;;;7.31;82.58
21824;BME280;11074;48.596;9.238;2023-12-20T10:57:07;98507.31;;;7.30;82.58
21824;BME280;11074;48.596;9.238;2023-12-20T10:59:39;98506.63;;;7.34;81.51
21824;BME280;11074;48.596;9.238;2023-12-20T11:02:05;98497.63;;;7.36;80.86
21824;BME280;11074;48.596;9.238;2023-12-20T11:04:54;98504.28;;;7.45;81.17
21824;BME280;11074;48.596;9.238;2023-12-20T11:07:41;98502.06;;;7.42;79.63
21824;BME280;11074;48.596;9.238;2023-12-20T11:10:22;98500.22;;;7.42;78.62
21824;BME280;11074;48.596;9.238;2023-12-20T11:12:58;98488.59;;;7.55;78.72
21824;BME280;11074;48.596;9.238;2023-12-20T11:15:27;98486.16;;;7.53;81.32
21824;BME280;11074;48.596;9.238;2023-12-20T11:17:57;98499.13;;;7.61;80.55
21824;BME280;11074;48.596;9.238;2023-12-20T11:20:24;98505.84;;;7.64;78.06
21824;BME280;11074;48.596;9.238;2023-12-20T11:23:00;98481.72;;;7.65;78.12
21824;BME280;11074;48.596;9.238;2023-12-20T11:25:26;98494.47;;;7.75;78.58
21824;BME280;11074;48.596;9.238;2023-12-20T11:28:07;98485.84;;;7.91;76.65
21824;BME280;11074;48.596;9.238;2023-12-20T11:30:45;98490.38;;;8.02;76.09
21824;BME280;11074;48.596;9.238;2023-12-20T11:33:13;98487.03;;;7.95;75.54
21824;BME280;11074;48.596;9.238;2023-12-20T11:35:39;98494.88;;;7.90;76.60
21824;BME280;11074;48.596;9.238;2023-12-20T11:38:08;98495.97;;;8.01;75.31
21824;BME280;11074;48.596;9.238;2023-12-20T11:40:34;98495.22;;;7.93;74.12
21824;BME280;11074;48.596;9.238;2023-12-20T11:43:00;98497.81;;;8.00;74.21
21824;BME280;11074;48.596;9.238;2023-12-20T11:45:26;98500.34;;;7.95;75.22
21824;BME280;11074;48.596;9.238;2023-12-20T11:47:52;98487.78;;;7.84;75.62
21824;BME280;11074;48.596;9.238;2023-12-20T11:50:22;98489.56;;;7.90;75.59
21824;BME280;11074;48.596;9.238;2023-12-20T11:52:49;98498.88;;;7.81;74.78
21824;BME280;11074;48.596;9.238;2023-12-20T11:55:14;98504.66;;;7.78;74.51
21824;BME280;11074;48.596;9.238;2023-12-20T11:57:41;98502.56;;;7.80;73.71
21824;BME280;11074;48.596;9.238;2023-12-20T12:00:07;98495.84;;;7.66;74.17
21824;BME280;11074;48.596;9.238;2023-12-20T12:02:33;98496.41;;;7.68;74.26
21824;BME280;11074;48.596;9.238;2023-12-20T12:04:59;98481.13;;;7.63;74.71
21824;BME280;11074;48.596;9.238;2023-12-20T12:07:25;98492.13;;;7.67;74.59
21824;BME280;11074;48.596;9.238;2023-12-20T12:09:51;98482.41;;;7.61;75.46
21824;BME280;11074;48.596;9.238;2023-12-20T12:12:17;98474.84;;;7.58;76.32
21824;BME280;11074;48.596;9.238;2023-12-20T12:14:45;98484.56;;;7.64;75.93
21824;BME280;11074;48.596;9.238;2023-12-20T12:17:11;98474.75;;;7.64;74.85
21824;BME280;11074;48.596;9.238;2023-12-20T12:19:38;98477.06;;;7.61;74.48
21824;BME280;11074;48.596;9.238;2023-12-20T12:22:08;98489.69;;;7.65;74.59
21824;BME280;11074;48.596;9.238;2023-12-20T12:24:43;98481.00;;;7.58;74.34
21824;BME280;11074;48.596;9.238;2023-12-20T12:27:10;98480.03;;;7.53;74.64
21824;BME280;11074;48.596;9.238;2023-12-20T12:29:37;98494.22;;;7.47;73.94
21824;BME280;11074;48.596;9.238;2023-12-20T12:32:12;98479.75;;;7.43;75.25
21824;BME280;11074;48.596;9.238;2023-12-20T12:34:39;98480.78;;;7.42;76.04
21824;BME280;11074;48.596;9.238;2023-12-20T12:37:05;98487.38;;;7.39;76.70
21824;BME280;11074;48.596;9.238;2023-12-20T12:39:30;98486.03;;;7.30;76.31
21824;BME280;11074;48.596;9.238;2023-12-20T12:41:56;98469.94;;;7.25;76.18
21824;BME280;11074;48.596;9.238;2023-12-20T12:44:24;98468.31;;;7.24;76.20
21824;BME280;11074;48.596;9.238;2023-12-20T12:46:50;98485.84;;;7.31;76.63
21824;BME280;11074;48.596;9.238;2023-12-20T12:49:19;98472.97;;;7.28;77.38
21824;BME280;11074;48.596;9.238;2023-12-20T12:51:45;98469.81;;;7.20;77.43
21824;BME280;11074;48.596;9.238;2023-12-20T12:54:10;98478.81;;;7.19;77.13
21824;BME280;11074;48.596;9.238;2023-12-20T12:56:38;98479.19;;;7.22;76.05
21824;BME280;11074;48.596;9.238;2023-12-20T12:59:04;98466.34;;;7.19;75.86
21824;BME280;11074;48.596;9.238;2023-12-20T13:01:31;98466.91;;;7.21;76.69